createdAt,value
2022-12-27T00:00:06.660Z,11.80
2022-12-27T00:01:06.744Z,10.50
2022-12-27T00:02:06.692Z,9.00
2022-12-27T00:03:06.709Z,11.30
2022-12-27T00:04:06.652Z,12.30
2022-12-27T00:05:06.609Z,11.10
2022-12-27T00:06:06.575Z,13.20
2022-12-27T00:07:06.563Z,12.80
2022-12-27T00:08:06.557Z,11.10
2022-12-27T00:09:06.563Z,15.20
2022-12-27T00:10:06.589Z,11.90
2022-12-27T00:11:06.518Z,12.50
2022-12-27T00:12:06.494Z,10.20
2022-12-27T00:13:06.483Z,13.60
2022-12-27T00:14:06.513Z,9.90
2022-12-27T00:15:06.509Z,13.20
2022-12-27T00:16:06.479Z,11.20
2022-12-27T00:17:06.453Z,12.10
2022-12-27T00:18:06.434Z,14.80
2022-12-27T00:19:06.433Z,11.00
2022-12-27T00:20:11.429Z,11.70
2022-12-27T00:21:07.385Z,11.40
2022-12-27T00:22:06.379Z,11.00
2022-12-27T00:23:06.375Z,14.20
2022-12-27T00:24:06.360Z,14.90
2022-12-27T00:25:06.349Z,13.00
2022-12-27T00:26:06.325Z,13.50
2022-12-27T00:27:06.305Z,12.20
2022-12-27T00:28:06.294Z,11.10
2022-12-27T00:29:06.307Z,13.90
2022-12-27T00:30:06.297Z,12.00
2022-12-27T00:31:06.265Z,11.40
2022-12-27T00:32:06.231Z,12.50
2022-12-27T00:33:06.237Z,12.60
2022-12-27T00:34:06.228Z,12.70
2022-12-27T00:35:06.206Z,8.00
2022-12-27T00:36:06.214Z,10.70
2022-12-27T00:37:06.187Z,8.90
2022-12-27T00:38:06.154Z,10.20
2022-12-27T00:39:06.178Z,10.90
2022-12-27T00:40:06.145Z,13.10
2022-12-27T00:41:06.152Z,9.10
2022-12-27T00:42:06.134Z,8.70
2022-12-27T00:43:06.098Z,11.90
2022-12-27T00:44:06.095Z,8.90
2022-12-27T00:45:06.082Z,7.40
2022-12-27T00:46:06.115Z,7.60
2022-12-27T00:47:06.060Z,11.10
2022-12-27T00:48:06.051Z,8.00
2022-12-27T00:49:06.044Z,9.30
2022-12-27T00:50:06.043Z,8.30
2022-12-27T00:51:06.016Z,9.20
2022-12-27T00:52:05.972Z,11.90
2022-12-27T00:53:05.960Z,11.10
2022-12-27T00:54:06.049Z,10.40
2022-12-27T00:55:05.943Z,10.50
2022-12-27T00:56:05.917Z,7.90
2022-12-27T00:57:05.907Z,5.20
2022-12-27T00:58:05.941Z,7.10
2022-12-27T00:59:05.927Z,8.30
2022-12-27T01:00:10.128Z,6.60
2022-12-27T01:01:05.866Z,10.20
2022-12-27T01:02:05.888Z,9.80
2022-12-27T01:03:05.848Z,8.80
2022-12-27T01:04:05.952Z,10.70
2022-12-27T01:05:05.813Z,10.20
2022-12-27T01:06:05.821Z,11.50
2022-12-27T01:07:05.785Z,10.50
2022-12-27T01:08:05.773Z,8.00
2022-12-27T01:09:05.777Z,7.80
2022-12-27T01:10:05.754Z,7.30
2022-12-27T01:11:05.724Z,6.90
2022-12-27T01:12:05.717Z,11.50
2022-12-27T01:13:05.703Z,8.30
2022-12-27T01:14:05.775Z,9.50
2022-12-27T01:15:05.665Z,9.50
2022-12-27T01:16:05.749Z,8.40
2022-12-27T01:17:05.697Z,8.00
2022-12-27T01:18:05.633Z,6.90
2022-12-27T01:19:05.634Z,9.80
2022-12-27T01:20:05.598Z,10.90
2022-12-27T01:21:05.597Z,13.60
2022-12-27T01:22:05.576Z,8.90
2022-12-27T01:23:05.593Z,9.10
2022-12-27T01:24:05.593Z,7.90
2022-12-27T01:25:05.548Z,11.60
2022-12-27T01:26:05.531Z,12.20
2022-12-27T01:27:05.544Z,9.50
2022-12-27T01:28:05.504Z,10.10
2022-12-27T01:29:05.514Z,8.00
2022-12-27T01:30:05.662Z,11.00
2022-12-27T01:31:05.469Z,6.20
2022-12-27T01:32:05.570Z,10.00
2022-12-27T01:33:05.437Z,9.10
2022-12-27T01:34:05.424Z,10.10
2022-12-27T01:35:05.407Z,13.30
2022-12-27T01:36:05.393Z,11.40
2022-12-27T01:37:05.401Z,8.20
2022-12-27T01:38:05.394Z,10.40
2022-12-27T01:39:05.489Z,8.20
2022-12-27T01:40:05.355Z,9.40
2022-12-27T01:41:05.323Z,9.30
2022-12-27T01:42:05.325Z,7.80
2022-12-27T01:43:05.316Z,9.80
2022-12-27T01:44:05.301Z,10.60
2022-12-27T01:45:05.548Z,12.60
2022-12-27T01:46:05.297Z,9.40
2022-12-27T01:47:05.259Z,8.40
2022-12-27T01:48:05.247Z,10.40
2022-12-27T01:49:05.428Z,10.40
2022-12-27T01:50:05.217Z,11.40
2022-12-27T01:51:05.195Z,10.60
2022-12-27T01:52:05.196Z,9.90
2022-12-27T01:53:05.168Z,9.50
2022-12-27T01:54:05.160Z,7.00
2022-12-27T01:55:05.143Z,10.60
2022-12-27T01:56:05.142Z,11.00
2022-12-27T01:57:05.120Z,7.50
2022-12-27T01:58:05.135Z,12.10
2022-12-27T01:59:05.135Z,10.80
2022-12-27T02:00:05.099Z,8.00
2022-12-27T02:01:05.141Z,9.40
2022-12-27T02:02:05.381Z,7.70
2022-12-27T02:03:05.153Z,9.10
2022-12-27T02:04:05.048Z,7.80
2022-12-27T02:05:05.030Z,8.40
2022-12-27T02:06:05.016Z,11.40
2022-12-27T02:07:05.028Z,6.90
2022-12-27T02:08:04.987Z,11.10
2022-12-27T02:09:05.019Z,10.20
2022-12-27T02:10:04.953Z,12.10
2022-12-27T02:11:04.940Z,9.20
2022-12-27T02:12:04.921Z,9.00
2022-12-27T02:13:04.922Z,9.10
2022-12-27T02:14:04.907Z,10.30
2022-12-27T02:15:04.887Z,10.10
2022-12-27T02:16:04.869Z,7.90
2022-12-27T02:17:04.953Z,7.40
2022-12-27T02:18:04.837Z,9.50
2022-12-27T02:19:04.862Z,8.90
2022-12-27T02:20:04.835Z,12.20
2022-12-27T02:21:04.813Z,8.00
2022-12-27T02:22:04.793Z,10.60
2022-12-27T02:23:04.830Z,10.20
2022-12-27T02:24:04.788Z,11.30
2022-12-27T02:25:04.768Z,8.90
2022-12-27T02:26:04.735Z,9.80
2022-12-27T02:27:04.746Z,9.10
2022-12-27T02:28:04.715Z,8.40
2022-12-27T02:29:04.762Z,8.10
2022-12-27T02:30:04.692Z,10.20
2022-12-27T02:31:04.745Z,11.10
2022-12-27T02:32:04.669Z,9.30
2022-12-27T02:33:04.653Z,8.50
2022-12-27T02:34:04.651Z,10.80
2022-12-27T02:35:04.631Z,7.90
2022-12-27T02:36:04.633Z,8.40
2022-12-27T02:37:04.631Z,11.90
2022-12-27T02:38:04.599Z,8.70
2022-12-27T02:39:04.619Z,7.60
2022-12-27T02:40:04.659Z,10.50
2022-12-27T02:41:04.570Z,7.30
2022-12-27T02:42:04.900Z,12.10
2022-12-27T02:43:04.554Z,8.70
2022-12-27T02:44:04.528Z,7.00
2022-12-27T02:45:04.508Z,9.20
2022-12-27T02:46:04.563Z,7.90
2022-12-27T02:47:04.473Z,11.00
2022-12-27T02:48:04.466Z,8.20
2022-12-27T02:49:04.465Z,11.00
2022-12-27T02:50:04.436Z,9.80
2022-12-27T02:51:04.443Z,10.00
2022-12-27T02:52:04.410Z,8.50
2022-12-27T02:53:04.419Z,8.60
2022-12-27T02:54:04.405Z,8.50
2022-12-27T02:55:04.379Z,4.80
2022-12-27T02:56:04.364Z,8.80
2022-12-27T02:57:04.368Z,8.70
2022-12-27T02:58:04.342Z,9.20
2022-12-27T02:59:04.350Z,8.90
2022-12-27T03:00:04.310Z,7.30
2022-12-27T03:01:04.337Z,5.70
2022-12-27T03:02:04.489Z,7.90
2022-12-27T03:03:04.313Z,8.90
2022-12-27T03:04:04.279Z,7.60
2022-12-27T03:05:04.281Z,7.00
2022-12-27T03:06:04.235Z,8.70
2022-12-27T03:07:04.233Z,8.80
2022-12-27T03:08:04.218Z,7.60
2022-12-27T03:09:04.222Z,8.10
2022-12-27T03:10:04.213Z,10.40
2022-12-27T03:11:04.189Z,7.10
2022-12-27T03:12:04.168Z,8.80
2022-12-27T03:13:04.155Z,7.30
2022-12-27T03:14:04.153Z,7.20
2022-12-27T03:15:04.127Z,5.10
2022-12-27T03:16:04.160Z,10.20
2022-12-27T03:17:04.094Z,6.70
2022-12-27T03:18:04.084Z,10.10
2022-12-27T03:19:04.097Z,9.10
2022-12-27T03:20:04.051Z,6.90
2022-12-27T03:21:04.062Z,6.70
2022-12-27T03:22:04.064Z,10.80
2022-12-27T03:23:04.036Z,7.00
2022-12-27T03:24:04.028Z,5.30
2022-12-27T03:25:04.000Z,7.00
2022-12-27T03:26:03.990Z,7.40
2022-12-27T03:27:03.982Z,7.80
2022-12-27T03:28:03.961Z,7.30
2022-12-27T03:29:03.967Z,7.20
2022-12-27T03:30:03.939Z,6.90
2022-12-27T03:31:03.971Z,7.10
2022-12-27T03:32:03.930Z,6.20
2022-12-27T03:33:03.908Z,6.40
2022-12-27T03:34:03.908Z,7.00
2022-12-27T03:35:03.877Z,8.60
2022-12-27T03:36:03.861Z,7.00
2022-12-27T03:37:03.864Z,7.70
2022-12-27T03:38:03.854Z,7.50
2022-12-27T03:39:03.830Z,8.20
2022-12-27T03:40:03.809Z,6.70
2022-12-27T03:41:03.797Z,7.00
2022-12-27T03:42:03.775Z,6.60
2022-12-27T03:43:03.806Z,8.30
2022-12-27T03:44:03.778Z,5.90
2022-12-27T03:45:03.737Z,9.10
2022-12-27T03:46:03.768Z,6.80
2022-12-27T03:47:03.717Z,7.40
2022-12-27T03:48:03.698Z,7.00
2022-12-27T03:49:03.719Z,8.90
2022-12-27T03:50:03.689Z,5.90
2022-12-27T03:51:03.769Z,6.10
2022-12-27T03:52:03.657Z,6.00
2022-12-27T03:53:03.637Z,7.70
2022-12-27T03:54:03.650Z,7.50
2022-12-27T03:55:03.629Z,8.10
2022-12-27T03:56:03.616Z,9.10
2022-12-27T03:57:03.598Z,9.20
2022-12-27T03:58:03.581Z,8.70
2022-12-27T03:59:03.577Z,8.70
2022-12-27T04:00:03.562Z,8.30
2022-12-27T04:01:03.539Z,7.90
2022-12-27T04:02:03.615Z,6.30
2022-12-27T04:03:03.565Z,7.30
2022-12-27T04:04:03.514Z,9.90
2022-12-27T04:05:03.499Z,7.90
2022-12-27T04:06:03.484Z,11.60
2022-12-27T04:07:03.473Z,7.40
2022-12-27T04:08:03.455Z,8.70
2022-12-27T04:09:03.459Z,7.90
2022-12-27T04:10:03.453Z,9.70
2022-12-27T04:11:03.411Z,7.90
2022-12-27T04:12:03.414Z,6.80
2022-12-27T04:13:03.386Z,7.70
2022-12-27T04:14:03.393Z,7.70
2022-12-27T04:15:03.363Z,5.80
2022-12-27T04:16:03.386Z,5.60
2022-12-27T04:17:03.370Z,6.40
2022-12-27T04:18:03.331Z,9.10
2022-12-27T04:19:03.321Z,9.10
2022-12-27T04:20:03.307Z,9.50
2022-12-27T04:21:03.304Z,8.70
2022-12-27T04:22:03.288Z,4.90
2022-12-27T04:23:03.253Z,7.10
2022-12-27T04:24:03.262Z,9.40
2022-12-27T04:25:03.236Z,7.00
2022-12-27T04:26:03.224Z,7.70
2022-12-27T04:27:03.209Z,7.70
2022-12-27T04:28:03.199Z,6.10
2022-12-27T04:29:03.199Z,8.80
2022-12-27T04:30:03.180Z,6.80
2022-12-27T04:31:03.170Z,6.50
2022-12-27T04:32:03.161Z,7.40
2022-12-27T04:33:03.128Z,7.40
2022-12-27T04:34:03.137Z,5.40
2022-12-27T04:35:03.149Z,6.00
2022-12-27T04:36:06.351Z,7.90
2022-12-27T04:37:03.080Z,5.50
2022-12-27T04:38:03.089Z,6.50
2022-12-27T04:39:03.059Z,5.70
2022-12-27T04:40:03.039Z,8.00
2022-12-27T04:41:03.026Z,7.60
2022-12-27T04:42:03.034Z,10.20
2022-12-27T04:43:03.006Z,11.30
2022-12-27T04:44:03.014Z,10.80
2022-12-27T04:45:02.990Z,10.10
2022-12-27T04:46:03.017Z,9.70
2022-12-27T04:47:02.958Z,9.00
2022-12-27T04:48:02.945Z,11.10
2022-12-27T04:49:02.957Z,8.60
2022-12-27T04:50:02.923Z,6.50
2022-12-27T04:51:02.896Z,8.30
2022-12-27T04:52:02.888Z,7.80
2022-12-27T04:53:02.883Z,10.40
2022-12-27T04:54:02.887Z,8.00
2022-12-27T04:55:02.864Z,6.70
2022-12-27T04:56:02.842Z,8.70
2022-12-27T04:57:02.812Z,7.90
2022-12-27T04:58:02.821Z,7.10
2022-12-27T04:59:02.819Z,7.90
2022-12-27T05:00:02.792Z,8.50
2022-12-27T05:01:02.798Z,5.70
2022-12-27T05:02:02.917Z,10.00
2022-12-27T05:03:02.830Z,8.20
2022-12-27T05:04:02.771Z,8.60
2022-12-27T05:05:02.720Z,8.00
2022-12-27T05:06:02.714Z,9.00
2022-12-27T05:07:02.689Z,7.70
2022-12-27T05:08:02.687Z,8.10
2022-12-27T05:09:02.688Z,7.00
2022-12-27T05:10:02.652Z,8.40
2022-12-27T05:11:02.641Z,9.50
2022-12-27T05:12:02.653Z,5.70
2022-12-27T05:13:02.633Z,7.80
2022-12-27T05:14:02.636Z,5.40
2022-12-27T05:15:02.743Z,5.10
2022-12-27T05:16:02.620Z,9.00
2022-12-27T05:17:02.578Z,7.80
2022-12-27T05:18:02.557Z,6.00
2022-12-27T05:19:02.564Z,7.70
2022-12-27T05:20:02.527Z,7.20
2022-12-27T05:21:02.525Z,8.60
2022-12-27T05:22:03.045Z,6.50
2022-12-27T05:23:02.498Z,7.40
2022-12-27T05:24:05.661Z,7.10
2022-12-27T05:25:02.459Z,5.90
2022-12-27T05:26:02.525Z,7.60
2022-12-27T05:27:02.444Z,4.90
2022-12-27T05:28:02.429Z,7.10
2022-12-27T05:29:02.443Z,6.50
2022-12-27T05:30:02.407Z,7.00
2022-12-27T05:31:02.434Z,6.70
2022-12-27T05:32:03.345Z,6.10
2022-12-27T05:33:02.369Z,6.00
2022-12-27T05:34:02.359Z,7.70
2022-12-27T05:35:02.328Z,6.10
2022-12-27T05:36:02.349Z,8.40
2022-12-27T05:37:02.325Z,7.90
2022-12-27T05:38:02.308Z,7.60
2022-12-27T05:39:02.313Z,8.10
2022-12-27T05:40:02.279Z,4.60
2022-12-27T05:41:02.277Z,5.50
2022-12-27T05:42:02.241Z,9.20
2022-12-27T05:43:02.226Z,6.90
2022-12-27T05:44:07.136Z,7.70
2022-12-27T05:45:03.220Z,7.30
2022-12-27T05:46:02.191Z,6.40
2022-12-27T05:47:02.258Z,8.20
2022-12-27T05:48:02.187Z,6.70
2022-12-27T05:49:02.152Z,9.10
2022-12-27T05:50:02.186Z,8.40
2022-12-27T05:51:02.125Z,7.20
2022-12-27T05:52:02.126Z,5.70
2022-12-27T05:53:02.117Z,6.50
2022-12-27T05:54:02.088Z,8.30
2022-12-27T05:55:02.094Z,7.20
2022-12-27T05:56:02.065Z,6.80
2022-12-27T05:57:02.053Z,7.90
2022-12-27T05:58:02.049Z,8.50
2022-12-27T05:59:02.045Z,5.90
2022-12-27T06:00:02.025Z,5.90
2022-12-27T06:01:01.991Z,10.00
2022-12-27T06:02:02.194Z,6.30
2022-12-27T06:03:02.083Z,7.50
2022-12-27T06:04:01.978Z,6.80
2022-12-27T06:05:01.972Z,9.20
2022-12-27T06:06:01.941Z,4.90
2022-12-27T06:07:01.939Z,8.60
2022-12-27T06:08:01.919Z,7.20
2022-12-27T06:09:01.891Z,7.10
2022-12-27T06:10:01.897Z,7.00
2022-12-27T06:11:01.875Z,5.50
2022-12-27T06:12:01.925Z,7.20
2022-12-27T06:13:01.843Z,5.70
2022-12-27T06:14:01.859Z,8.00
2022-12-27T06:15:01.872Z,7.70
2022-12-27T06:16:01.828Z,7.00
2022-12-27T06:17:01.797Z,7.90
2022-12-27T06:18:01.778Z,5.50
2022-12-27T06:19:01.754Z,6.00
2022-12-27T06:20:01.776Z,6.40
2022-12-27T06:21:01.745Z,5.40
2022-12-27T06:22:01.725Z,6.70
2022-12-27T06:23:01.721Z,5.10
2022-12-27T06:24:01.716Z,7.90
2022-12-27T06:25:01.732Z,5.60
2022-12-27T06:26:01.679Z,7.60
2022-12-27T06:27:01.656Z,6.70
2022-12-27T06:28:01.644Z,6.90
2022-12-27T06:29:01.654Z,7.50
2022-12-27T06:30:01.647Z,6.00
2022-12-27T06:31:01.635Z,7.90
2022-12-27T06:32:01.631Z,7.90
2022-12-27T06:33:01.594Z,7.40
2022-12-27T06:34:01.591Z,14.30
2022-12-27T06:35:01.614Z,12.60
2022-12-27T06:36:01.542Z,10.80
2022-12-27T06:37:01.540Z,13.30
2022-12-27T06:38:01.538Z,8.10
2022-12-27T06:39:01.504Z,9.30
2022-12-27T06:40:01.539Z,7.40
2022-12-27T06:41:01.476Z,7.00
2022-12-27T06:42:01.473Z,11.80
2022-12-27T06:43:01.443Z,10.90
2022-12-27T06:44:01.443Z,11.40
2022-12-27T06:45:01.432Z,8.30
2022-12-27T06:46:01.483Z,6.70
2022-12-27T06:47:01.403Z,6.90
2022-12-27T06:48:01.402Z,9.10
2022-12-27T06:49:01.371Z,8.50
2022-12-27T06:50:01.384Z,5.30
2022-12-27T06:51:01.349Z,7.30
2022-12-27T06:52:01.341Z,13.90
2022-12-27T06:53:01.332Z,7.00
2022-12-27T06:54:01.362Z,8.20
2022-12-27T06:55:01.308Z,7.70
2022-12-27T06:56:01.460Z,7.30
2022-12-27T06:57:01.355Z,9.60
2022-12-27T06:58:01.268Z,9.80
2022-12-27T06:59:01.362Z,7.70
2022-12-27T07:00:01.282Z,7.90
2022-12-27T07:01:01.261Z,8.50
2022-12-27T07:02:01.371Z,6.70
2022-12-27T07:03:01.242Z,7.80
2022-12-27T07:04:01.204Z,5.30
2022-12-27T07:05:01.190Z,8.00
2022-12-27T07:06:01.164Z,7.80
2022-12-27T07:07:01.139Z,6.90
2022-12-27T07:08:01.131Z,7.70
2022-12-27T07:09:01.128Z,9.30
2022-12-27T07:10:01.167Z,8.70
2022-12-27T07:11:01.112Z,9.20
2022-12-27T07:12:01.101Z,7.50
2022-12-27T07:13:01.068Z,10.50
2022-12-27T07:14:01.069Z,11.00
2022-12-27T07:15:01.058Z,8.20
2022-12-27T07:16:01.032Z,7.80
2022-12-27T07:17:01.041Z,8.30
2022-12-27T07:18:01.007Z,9.40
2022-12-27T07:19:01.004Z,10.20
2022-12-27T07:20:00.997Z,9.70
2022-12-27T07:21:00.968Z,9.70
2022-12-27T07:22:00.974Z,12.50
2022-12-27T07:23:00.945Z,13.40
2022-12-27T07:24:00.936Z,8.60
2022-12-27T07:25:00.965Z,7.60
2022-12-27T07:26:00.903Z,9.80
2022-12-27T07:27:00.888Z,9.90
2022-12-27T07:28:00.898Z,6.20
2022-12-27T07:29:00.890Z,8.80
2022-12-27T07:30:00.864Z,9.10
2022-12-27T07:31:00.833Z,9.10
2022-12-27T07:32:00.948Z,6.40
2022-12-27T07:33:00.816Z,10.10
2022-12-27T07:34:01.136Z,7.30
2022-12-27T07:35:00.800Z,10.50
2022-12-27T07:36:00.796Z,9.10
2022-12-27T07:37:00.758Z,7.60
2022-12-27T07:38:00.758Z,8.40
2022-12-27T07:39:00.739Z,11.60
2022-12-27T07:40:00.738Z,9.70
2022-12-27T07:41:00.701Z,8.30
2022-12-27T07:42:06.304Z,7.40
2022-12-27T07:43:01.689Z,10.30
2022-12-27T07:44:00.671Z,8.60
2022-12-27T07:45:00.678Z,11.40
2022-12-27T07:46:00.704Z,7.40
2022-12-27T07:47:00.638Z,7.40
2022-12-27T07:48:00.632Z,10.30
2022-12-27T07:49:00.612Z,8.80
2022-12-27T07:50:00.617Z,8.40
2022-12-27T07:51:01.697Z,14.20
2022-12-27T07:52:00.587Z,9.60
2022-12-27T07:53:00.602Z,10.70
2022-12-27T07:54:00.542Z,11.90
2022-12-27T07:55:00.535Z,10.60
2022-12-27T07:56:00.747Z,10.30
2022-12-27T07:57:00.607Z,7.20
2022-12-27T07:58:00.637Z,13.10
2022-12-27T07:59:00.644Z,11.30
2022-12-27T08:00:00.643Z,5.90
2022-12-27T08:01:00.525Z,7.60
2022-12-27T08:02:00.798Z,13.70
2022-12-27T08:03:00.483Z,10.20
2022-12-27T08:04:00.614Z,57.40
2022-12-27T08:05:00.581Z,30.20
2022-12-27T08:06:00.377Z,15.00
2022-12-27T08:07:00.514Z,10.00
2022-12-27T08:08:00.417Z,8.90
2022-12-27T08:09:00.513Z,6.80
2022-12-27T08:10:00.468Z,10.00
2022-12-27T08:11:05.301Z,7.80
2022-12-27T08:12:01.379Z,9.90
2022-12-27T08:13:00.298Z,9.30
2022-12-27T08:14:00.464Z,7.50
2022-12-27T08:15:00.364Z,9.80
2022-12-27T08:16:00.422Z,9.00
2022-12-27T08:17:00.434Z,7.90
2022-12-27T08:18:00.367Z,35.70
2022-12-27T08:19:04.858Z,8.40
2022-12-27T08:20:01.359Z,7.70
2022-12-27T08:21:00.337Z,9.40
2022-12-27T08:22:00.324Z,6.40
2022-12-27T08:23:00.247Z,7.20
2022-12-27T08:24:00.157Z,8.30
2022-12-27T08:25:00.293Z,7.60
2022-12-27T08:26:00.137Z,8.40
2022-12-27T08:27:00.186Z,4.70
2022-12-27T08:28:00.185Z,10.80
2022-12-27T08:29:00.306Z,8.60
2022-12-27T08:30:00.155Z,21.00
2022-12-27T08:31:00.202Z,7.40
2022-12-27T08:32:00.237Z,9.00
2022-12-27T08:33:00.195Z,7.70
2022-12-27T08:34:00.177Z,6.40
2022-12-27T08:35:18.287Z,7.80
2022-12-27T08:36:04.788Z,11.10
2022-12-27T08:37:00.989Z,13.80
2022-12-27T08:38:00.133Z,7.90
2022-12-27T08:38:59.964Z,11.20
2022-12-27T08:40:02.846Z,8.20
2022-12-27T08:40:59.929Z,6.80
2022-12-27T08:42:00.193Z,6.50
2022-12-27T08:43:00.123Z,8.40
2022-12-27T08:44:00.004Z,16.10
2022-12-27T08:45:00.025Z,5.10
2022-12-27T08:45:59.916Z,5.30
2022-12-27T08:47:00.006Z,5.40
2022-12-27T08:47:59.898Z,11.20
2022-12-27T08:48:59.914Z,9.00
2022-12-27T08:49:59.979Z,13.80
2022-12-27T08:50:59.805Z,7.50
2022-12-27T08:51:59.957Z,7.80
2022-12-27T08:52:59.892Z,26.90
2022-12-27T08:53:59.916Z,30.70
2022-12-27T08:54:59.939Z,54.90
2022-12-27T08:55:59.809Z,63.10
2022-12-27T08:56:59.887Z,25.20
2022-12-27T08:57:59.702Z,22.40
2022-12-27T08:58:59.708Z,16.50
2022-12-27T08:59:59.716Z,25.30
2022-12-27T09:00:59.678Z,27.80
2022-12-27T09:01:59.722Z,31.20
2022-12-27T09:02:59.698Z,35.20
2022-12-27T09:03:59.640Z,25.00
2022-12-27T09:04:59.635Z,40.00
2022-12-27T09:05:59.622Z,34.50
2022-12-27T09:06:59.595Z,20.20
2022-12-27T09:07:59.576Z,8.50
2022-12-27T09:08:59.566Z,9.10
2022-12-27T09:09:59.579Z,8.70
2022-12-27T09:10:59.547Z,8.00
2022-12-27T09:12:02.878Z,8.00
2022-12-27T09:13:00.511Z,9.10
2022-12-27T09:13:59.514Z,6.40
2022-12-27T09:14:59.588Z,6.60
2022-12-27T09:15:59.509Z,8.10
2022-12-27T09:16:59.463Z,12.00
2022-12-27T09:17:59.444Z,7.90
2022-12-27T09:18:59.440Z,10.00
2022-12-27T09:19:59.440Z,7.60
2022-12-27T09:20:59.431Z,7.30
2022-12-27T09:21:59.401Z,9.00
2022-12-27T09:22:59.392Z,6.90
2022-12-27T09:23:59.391Z,6.30
2022-12-27T09:24:59.409Z,5.70
2022-12-27T09:25:59.366Z,6.70
2022-12-27T09:26:59.339Z,6.60
2022-12-27T09:27:59.333Z,5.30
2022-12-27T09:28:59.371Z,6.90
2022-12-27T09:29:59.302Z,6.90
2022-12-27T09:30:59.327Z,4.70
2022-12-27T09:31:59.268Z,6.70
2022-12-27T09:32:59.273Z,6.50
2022-12-27T09:33:59.283Z,7.40
2022-12-27T09:34:59.241Z,5.40
2022-12-27T09:35:59.210Z,7.90
2022-12-27T09:36:59.212Z,6.50
2022-12-27T09:37:59.204Z,4.60
2022-12-27T09:38:59.193Z,7.10
2022-12-27T09:39:59.179Z,5.70
2022-12-27T09:40:59.185Z,8.20
2022-12-27T09:43:15.357Z,6.90
2022-12-27T09:44:00.129Z,5.10
2022-12-27T09:44:59.114Z,7.30
2022-12-27T09:45:59.290Z,4.60
2022-12-27T09:46:59.079Z,5.70
2022-12-27T09:47:59.053Z,4.90
2022-12-27T09:48:59.049Z,4.80
2022-12-27T09:49:59.040Z,6.60
2022-12-27T09:50:59.021Z,7.40
2022-12-27T09:51:59.013Z,6.40
2022-12-27T09:52:58.992Z,5.60
2022-12-27T09:53:58.985Z,5.10
2022-12-27T09:55:04.388Z,6.80
2022-12-27T09:55:59.951Z,8.80
2022-12-27T09:57:59.925Z,7.80
2022-12-27T09:58:59.051Z,6.30
2022-12-27T09:59:58.915Z,6.40
2022-12-27T10:00:58.892Z,6.10
2022-12-27T10:01:58.970Z,27.70
2022-12-27T10:02:58.867Z,8.90
2022-12-27T10:03:58.872Z,8.20
2022-12-27T10:05:59.864Z,17.50
2022-12-27T10:06:58.808Z,13.60
2022-12-27T10:07:58.802Z,21.00
2022-12-27T10:08:58.779Z,6.70
2022-12-27T10:09:58.812Z,5.20
2022-12-27T10:10:58.758Z,5.60
2022-12-27T10:11:58.751Z,7.00
2022-12-27T10:12:58.739Z,5.10
2022-12-27T10:13:58.734Z,5.80
2022-12-27T10:14:58.721Z,6.20
2022-12-27T10:15:58.720Z,5.60
2022-12-27T10:16:58.677Z,5.60
2022-12-27T10:17:58.671Z,6.80
2022-12-27T10:18:58.662Z,5.60
2022-12-27T10:19:58.673Z,4.20
2022-12-27T10:20:58.643Z,5.20
2022-12-27T10:21:58.598Z,4.70
2022-12-27T10:23:04.299Z,7.60
2022-12-27T10:23:59.596Z,6.50
2022-12-27T10:24:58.600Z,5.30
2022-12-27T10:25:58.568Z,6.60
2022-12-27T10:26:58.550Z,5.80
2022-12-27T10:27:58.529Z,3.10
2022-12-27T10:28:58.526Z,5.70
2022-12-27T10:29:58.508Z,5.00
2022-12-27T10:30:58.510Z,5.10
2022-12-27T10:31:58.480Z,3.80
2022-12-27T10:32:58.475Z,6.80
2022-12-27T10:33:58.456Z,5.20
2022-12-27T10:34:58.459Z,4.70
2022-12-27T10:35:58.446Z,4.50
2022-12-27T10:36:58.407Z,5.80
2022-12-27T10:37:58.417Z,4.80
2022-12-27T10:38:58.384Z,4.90
2022-12-27T10:39:58.392Z,6.30
2022-12-27T10:40:58.372Z,3.90
2022-12-27T10:41:58.339Z,5.60
2022-12-27T10:42:58.337Z,3.80
2022-12-27T10:43:58.334Z,6.30
2022-12-27T10:44:58.327Z,5.70
2022-12-27T10:45:58.290Z,4.10
2022-12-27T10:46:58.343Z,4.80
2022-12-27T10:47:58.282Z,4.60
2022-12-27T10:49:59.253Z,6.50
2022-12-27T10:50:58.233Z,3.60
2022-12-27T10:51:58.240Z,4.70
2022-12-27T10:52:58.223Z,5.30
2022-12-27T10:53:58.183Z,5.50
2022-12-27T10:54:58.189Z,6.20
2022-12-27T10:55:58.157Z,3.60
2022-12-27T10:56:58.144Z,4.40
2022-12-27T10:57:58.133Z,4.40
2022-12-27T10:58:59.212Z,6.40
2022-12-27T10:59:58.119Z,5.20
2022-12-27T11:00:58.156Z,4.10
2022-12-27T11:01:58.120Z,7.30
2022-12-27T11:02:58.113Z,5.40
2022-12-27T11:03:58.055Z,5.00
2022-12-27T11:04:58.070Z,6.40
2022-12-27T11:05:58.029Z,6.20
2022-12-27T11:06:58.021Z,5.10
2022-12-27T11:07:58.025Z,5.00
2022-12-27T11:08:58.033Z,6.10
2022-12-27T11:09:57.977Z,4.00
2022-12-27T11:10:57.976Z,6.90
2022-12-27T11:11:57.946Z,6.20
2022-12-27T11:12:57.944Z,5.40
2022-12-27T11:13:57.927Z,6.00
2022-12-27T11:14:57.939Z,6.50
2022-12-27T11:15:59.057Z,6.10
2022-12-27T11:16:57.886Z,6.30
2022-12-27T11:17:57.888Z,3.80
2022-12-27T11:18:57.892Z,4.90
2022-12-27T11:19:57.865Z,3.80
2022-12-27T11:20:57.837Z,5.60
2022-12-27T11:21:57.820Z,4.90
2022-12-27T11:22:57.807Z,4.30
2022-12-27T11:23:57.786Z,5.40
2022-12-27T11:24:57.807Z,5.70
2022-12-27T11:25:57.802Z,5.50
2022-12-27T11:26:57.760Z,6.30
2022-12-27T11:27:57.923Z,4.60
2022-12-27T11:28:57.759Z,4.60
2022-12-27T11:29:57.772Z,5.20
2022-12-27T11:30:57.716Z,4.40
2022-12-27T11:31:57.732Z,5.50
2022-12-27T11:32:57.683Z,4.60
2022-12-27T11:33:57.667Z,5.90
2022-12-27T11:34:57.686Z,35.90
2022-12-27T11:35:57.638Z,3.50
2022-12-27T11:36:57.624Z,4.30
2022-12-27T11:37:57.604Z,5.00
2022-12-27T11:38:57.613Z,5.10
2022-12-27T11:39:57.601Z,5.10
2022-12-27T11:40:57.584Z,5.10
2022-12-27T11:41:57.574Z,4.80
2022-12-27T11:42:57.549Z,5.20
2022-12-27T11:43:57.521Z,4.10
2022-12-27T11:44:57.532Z,5.30
2022-12-27T11:45:57.500Z,5.80
2022-12-27T11:46:59.456Z,6.00
2022-12-27T11:47:57.483Z,4.20
2022-12-27T11:48:57.486Z,5.00
2022-12-27T11:49:57.471Z,5.60
2022-12-27T11:50:57.430Z,4.70
2022-12-27T11:51:57.430Z,3.90
2022-12-27T11:52:57.401Z,3.90
2022-12-27T11:53:57.389Z,5.20
2022-12-27T11:54:57.403Z,5.80
2022-12-27T11:55:57.366Z,5.40
2022-12-27T11:56:57.360Z,6.10
2022-12-27T11:57:57.338Z,7.00
2022-12-27T11:58:57.351Z,4.10
2022-12-27T11:59:57.323Z,4.80
2022-12-27T12:01:03.644Z,6.60
2022-12-27T12:01:58.373Z,4.30
2022-12-27T12:02:57.439Z,4.10
2022-12-27T12:03:57.258Z,5.90
2022-12-27T12:04:57.260Z,6.10
2022-12-27T12:05:57.234Z,6.40
2022-12-27T12:06:57.238Z,6.30
2022-12-27T12:07:57.215Z,5.80
2022-12-27T12:08:57.207Z,7.00
2022-12-27T12:09:57.199Z,5.70
2022-12-27T12:10:57.199Z,5.50
2022-12-27T12:11:57.178Z,4.90
2022-12-27T12:12:57.142Z,5.10
2022-12-27T12:13:57.131Z,4.80
2022-12-27T12:14:57.137Z,4.30
2022-12-27T12:15:57.113Z,5.00
2022-12-27T12:16:57.142Z,4.80
2022-12-27T12:17:57.098Z,5.00
2022-12-27T12:18:57.067Z,6.30
2022-12-27T12:19:57.081Z,5.20
2022-12-27T12:20:57.080Z,6.50
2022-12-27T12:21:57.207Z,5.50
2022-12-27T12:22:57.183Z,8.00
2022-12-27T12:23:57.007Z,5.60
2022-12-27T12:24:57.158Z,4.80
2022-12-27T12:25:57.142Z,4.60
2022-12-27T12:26:57.106Z,4.20
2022-12-27T12:27:57.137Z,4.60
2022-12-27T12:28:59.289Z,5.70
2022-12-27T12:29:57.021Z,7.10
2022-12-27T12:30:56.906Z,4.40
2022-12-27T12:31:57.001Z,3.10
2022-12-27T12:32:56.885Z,5.30
2022-12-27T12:33:57.348Z,5.50
2022-12-27T12:34:56.958Z,6.30
2022-12-27T12:35:57.048Z,5.00
2022-12-27T12:36:57.005Z,5.70
2022-12-27T12:37:56.910Z,4.90
2022-12-27T12:38:56.797Z,3.60
2022-12-27T12:39:56.991Z,4.60
2022-12-27T12:40:56.949Z,4.10
2022-12-27T12:41:56.767Z,6.10
2022-12-27T12:42:56.882Z,5.20
2022-12-27T12:43:56.752Z,4.10
2022-12-27T12:44:56.891Z,4.80
2022-12-27T12:45:56.749Z,5.10
2022-12-27T12:46:56.886Z,4.20
2022-12-27T12:47:56.875Z,5.30
2022-12-27T12:48:56.670Z,5.50
2022-12-27T12:49:56.844Z,3.90
2022-12-27T12:50:56.642Z,5.80
2022-12-27T12:51:56.639Z,6.60
2022-12-27T12:52:56.615Z,4.00
2022-12-27T12:53:56.615Z,4.50
2022-12-27T12:54:56.626Z,7.00
2022-12-27T12:55:56.594Z,5.70
2022-12-27T12:56:56.577Z,5.90
2022-12-27T12:57:56.555Z,5.90
2022-12-27T12:58:56.543Z,5.90
2022-12-27T12:59:56.545Z,5.10
2022-12-27T13:00:56.541Z,5.20
2022-12-27T13:01:56.600Z,8.20
2022-12-27T13:02:56.562Z,5.30
2022-12-27T13:03:56.505Z,6.50
2022-12-27T13:04:56.478Z,5.60
2022-12-27T13:05:56.451Z,4.70
2022-12-27T13:06:56.445Z,7.00
2022-12-27T13:07:56.436Z,5.80
2022-12-27T13:08:56.435Z,6.00
2022-12-27T13:09:56.436Z,3.90
2022-12-27T13:10:56.382Z,5.60
2022-12-27T13:11:56.373Z,5.60
2022-12-27T13:12:56.422Z,5.10
2022-12-27T13:13:56.348Z,5.80
2022-12-27T13:14:56.351Z,6.00
2022-12-27T13:15:56.347Z,5.60